Time;durP1;ratioP1;P1;durP2;ratioP2;P2;SDS_P1;SDS_P2;PMS_P1;PMS_P2;Temp;Humidity;BMP_temperature;BMP_pressure;BME280_temperature;BME280_humidity;BME280_pressure;Samples;Min_cycle;Max_cycle;Signal;HPM_P1;HPM_P2
2021/01/08 00:00:21;;;;;;;34.25;16.55;;;0.90;99.90;;;;;;5093459;28;20063;-72
2021/01/08 00:02:48;;;;;;;33.00;15.98;;;0.90;99.90;;;;;;5067540;28;20082;-72
2021/01/08 00:05:15;;;;;;;35.80;16.77;;;0.90;99.90;;;;;;5078474;27;20044;-70
2021/01/08 00:07:41;;;;;;;36.08;16.40;;;0.90;99.90;;;;;;5072167;28;20108;-72
2021/01/08 00:10:08;;;;;;;34.22;17.67;;;0.90;99.90;;;;;;5100006;28;20138;-71
2021/01/08 00:12:36;;;;;;;38.67;15.88;;;0.90;99.90;;;;;;5071313;28;20056;-72
2021/01/08 00:15:06;;;;;;;37.75;17.55;;;0.90;99.90;;;;;;5063190;27;20062;-72
2021/01/08 00:17:32;;;;;;;44.85;19.00;;;0.90;99.90;;;;;;5080210;28;20135;-72
2021/01/08 00:19:59;;;;;;;46.33;19.15;;;0.90;99.90;;;;;;5082211;28;20087;-72
2021/01/08 00:22:26;;;;;;;48.25;18.65;;;0.90;99.90;;;;;;5079644;28;20097;-72
2021/01/08 00:24:53;;;;;;;57.42;21.85;;;0.90;99.90;;;;;;5081636;28;20056;-71
2021/01/08 00:27:20;;;;;;;76.38;25.65;;;0.90;99.90;;;;;;5082009;28;20038;-73
2021/01/08 00:29:47;;;;;;;79.40;25.88;;;0.80;99.90;;;;;;5074321;28;20366;-73
2021/01/08 00:32:18;;;;;;;81.10;25.77;;;0.80;99.90;;;;;;5090302;28;20398;-72
2021/01/08 00:34:45;;;;;;;69.63;24.45;;;0.80;99.90;;;;;;5061843;28;20048;-72
2021/01/08 00:37:12;;;;;;;58.70;22.83;;;0.80;99.90;;;;;;5067774;28;20689;-72
2021/01/08 00:39:39;;;;;;;66.78;25.67;;;0.80;99.90;;;;;;5066760;28;20457;-71
2021/01/08 00:42:07;;;;;;;56.25;20.92;;;0.90;99.90;;;;;;5029058;28;20044;-71
2021/01/08 00:44:34;;;;;;;49.42;20.50;;;0.80;99.90;;;;;;5029504;28;20083;-72
2021/01/08 00:47:01;;;;;;;49.85;19.15;;;0.80;99.90;;;;;;5052099;28;20505;-71
2021/01/08 00:49:27;;;;;;;48.05;19.85;;;0.80;99.90;;;;;;5036079;28;20060;-72
2021/01/08 00:51:54;;;;;;;52.30;21.95;;;0.80;99.90;;;;;;5058224;28;20060;-72
2021/01/08 00:54:22;;;;;;;53.08;21.67;;;0.80;99.90;;;;;;5070075;28;20067;-71
2021/01/08 00:56:58;;;;;;;43.42;18.48;;;0.80;99.90;;;;;;5038780;28;20049;-72
2021/01/08 00:59:31;;;;;;;48.70;18.80;;;0.90;99.90;;;;;;5069595;28;20056;-71
2021/01/08 01:01:57;;;;;;;39.45;17.02;;;0.90;99.90;;;;;;5057834;28;20054;-71
2021/01/08 01:04:24;;;;;;;42.70;18.73;;;0.80;99.90;;;;;;5049355;28;20054;-71
2021/01/08 01:06:51;;;;;;;49.83;19.92;;;0.80;99.90;;;;;;5049727;28;20044;-71
2021/01/08 01:09:17;;;;;;;47.05;19.13;;;0.80;99.90;;;;;;5068267;28;20062;-72
2021/01/08 01:11:43;;;;;;;43.22;17.55;;;0.80;99.90;;;;;;5048630;28;20071;-72
2021/01/08 01:14:09;;;;;;;40.25;17.42;;;0.80;99.90;;;;;;5067348;28;20099;-72
2021/01/08 01:16:36;;;;;;;39.45;18.73;;;0.90;99.90;;;;;;5065421;28;20044;-72
2021/01/08 01:19:04;;;;;;;40.08;18.45;;;0.80;99.90;;;;;;5065904;28;20520;-72
2021/01/08 01:21:30;;;;;;;34.20;15.73;;;0.90;99.90;;;;;;5065117;28;20068;-71
2021/01/08 01:23:56;;;;;;;37.78;16.85;;;0.80;99.90;;;;;;5065808;28;20584;-72
2021/01/08 01:26:23;;;;;;;38.35;17.35;;;0.80;99.90;;;;;;5048218;28;20413;-72
2021/01/08 01:28:49;;;;;;;44.05;19.00;;;0.80;99.90;;;;;;5073881;28;20149;-72
2021/01/08 01:31:15;;;;;;;42.08;17.95;;;0.80;99.90;;;;;;5051900;28;20040;-72
2021/01/08 01:33:42;;;;;;;44.80;20.35;;;0.70;99.90;;;;;;5085891;28;20055;-71
2021/01/08 01:36:09;;;;;;;52.22;20.70;;;0.80;99.90;;;;;;5041293;28;20040;-72
2021/01/08 01:38:37;;;;;;;43.03;19.98;;;0.80;99.90;;;;;;5036303;28;20049;-72
2021/01/08 01:41:04;;;;;;;47.42;21.00;;;0.80;99.90;;;;;;5011886;28;20075;-72
2021/01/08 01:43:31;;;;;;;46.47;20.02;;;0.80;99.90;;;;;;5047657;28;20053;-72
2021/01/08 01:45:58;;;;;;;53.38;21.92;;;0.80;99.90;;;;;;5054725;28;20110;-72
2021/01/08 01:48:24;;;;;;;58.03;23.15;;;0.90;99.90;;;;;;5066279;28;20090;-71
2021/01/08 01:50:52;;;;;;;53.30;21.17;;;0.80;99.90;;;;;;5066480;28;20048;-72
2021/01/08 01:53:19;;;;;;;46.90;21.88;;;0.90;99.90;;;;;;5048155;28;20421;-72
2021/01/08 01:55:47;;;;;;;48.25;19.90;;;0.90;99.90;;;;;;5047932;28;20052;-73
2021/01/08 01:58:13;;;;;;;39.58;19.15;;;0.90;99.90;;;;;;5064672;28;20053;-72
2021/01/08 02:00:40;;;;;;;40.17;19.02;;;0.80;99.90;;;;;;5047885;28;20394;-73
2021/01/08 02:03:23;;;;;;;39.70;18.58;;;0.90;99.90;;;;;;5046857;28;20059;-72
2021/01/08 02:05:54;;;;;;;39.33;19.05;;;0.90;99.90;;;;;;5047402;28;20048;-71
2021/01/08 02:08:23;;;;;;;41.78;18.40;;;0.80;99.90;;;;;;5028743;28;20076;-72
2021/01/08 02:10:59;;;;;;;31.60;17.40;;;0.80;99.90;;;;;;5011910;28;20544;-72
2021/01/08 02:13:40;;;;;;;35.58;17.50;;;0.80;99.90;;;;;;5027767;28;20059;-72
2021/01/08 02:16:07;;;;;;;34.42;16.52;;;0.80;99.90;;;;;;5016333;28;21592;-72
2021/01/08 02:18:36;;;;;;;37.00;18.20;;;0.80;99.90;;;;;;5035147;28;20049;-72
2021/01/08 02:21:06;;;;;;;36.55;18.23;;;0.80;99.90;;;;;;5048756;28;20052;-71
2021/01/08 02:23:59;;;;;;;33.08;17.58;;;0.80;99.90;;;;;;5047529;28;20581;-72
2021/01/08 02:26:26;;;;;;;39.03;19.40;;;0.80;99.90;;;;;;5025882;28;20119;-72
2021/01/08 02:28:53;;;;;;;39.85;18.02;;;0.80;99.90;;;;;;5046620;28;20037;-72
2021/01/08 02:31:19;;;;;;;38.78;18.45;;;0.90;99.90;;;;;;5030891;28;20052;-72
2021/01/08 02:33:47;;;;;;;36.28;19.55;;;0.90;99.90;;;;;;5031591;28;20072;-73
2021/01/08 02:36:14;;;;;;;38.30;18.58;;;0.90;99.90;;;;;;5064231;28;20055;-72
2021/01/08 02:38:41;;;;;;;39.45;20.25;;;0.90;99.90;;;;;;5063965;28;20110;-72
2021/01/08 02:41:09;;;;;;;44.10;21.30;;;0.90;99.90;;;;;;5063611;28;20060;-73
2021/01/08 02:43:38;;;;;;;40.72;19.58;;;0.90;99.90;;;;;;5047625;28;20517;-72
2021/01/08 02:46:05;;;;;;;43.50;20.05;;;0.90;99.90;;;;;;5064871;28;20044;-71
2021/01/08 02:48:31;;;;;;;51.63;22.50;;;0.80;99.90;;;;;;5065094;28;20054;-72
2021/01/08 02:50:58;;;;;;;45.08;20.67;;;0.80;99.90;;;;;;5065148;28;20580;-71
2021/01/08 02:53:27;;;;;;;48.50;22.42;;;0.80;99.90;;;;;;5047308;28;20438;-72
2021/01/08 02:56:00;;;;;;;47.25;21.70;;;0.80;99.90;;;;;;5063451;28;20052;-72
2021/01/08 02:58:28;;;;;;;36.92;19.58;;;0.80;99.90;;;;;;5047393;28;20127;-72
2021/01/08 03:00:56;;;;;;;36.35;19.75;;;0.80;99.90;;;;;;5063187;28;20585;-72
2021/01/08 03:03:27;;;;;;;45.60;20.42;;;0.80;99.90;;;;;;5045673;28;20079;-72
2021/01/08 03:05:56;;;;;;;46.15;21.73;;;0.80;99.90;;;;;;5046627;28;20139;-72
2021/01/08 03:08:23;;;;;;;40.15;20.20;;;0.80;99.90;;;;;;5047724;28;20056;-72
2021/01/08 03:10:49;;;;;;;34.75;17.77;;;0.80;99.90;;;;;;5063617;28;20044;-72
2021/01/08 03:13:17;;;;;;;47.75;19.13;;;0.90;99.90;;;;;;5046411;28;20040;-71
2021/01/08 03:15:43;;;;;;;44.20;20.85;;;0.90;99.90;;;;;;5046012;28;20517;-71
2021/01/08 03:18:10;;;;;;;40.55;18.75;;;0.90;99.90;;;;;;5064647;28;20094;-72
2021/01/08 03:20:36;;;;;;;37.90;19.05;;;0.90;99.90;;;;;;5063650;28;20074;-73
2021/01/08 03:23:04;;;;;;;52.45;21.05;;;0.90;99.90;;;;;;5064328;28;20049;-73
2021/01/08 03:25:31;;;;;;;40.97;20.58;;;0.90;99.90;;;;;;5045989;28;20048;-73
2021/01/08 03:27:57;;;;;;;53.42;21.55;;;0.90;99.90;;;;;;5062441;28;20052;-72
2021/01/08 03:30:23;;;;;;;44.65;20.75;;;0.90;99.90;;;;;;5062098;28;20068;-72
2021/01/08 03:32:50;;;;;;;56.22;24.30;;;0.90;99.90;;;;;;5065359;28;20056;-71
2021/01/08 03:35:16;;;;;;;58.97;22.35;;;0.80;99.90;;;;;;5062434;28;20048;-73
2021/01/08 03:37:43;;;;;;;49.83;22.35;;;0.90;99.90;;;;;;5063601;28;20045;-72
2021/01/08 03:40:09;;;;;;;57.30;22.52;;;0.80;99.90;;;;;;5063422;28;20044;-73
2021/01/08 03:42:36;;;;;;;46.10;20.58;;;0.80;99.90;;;;;;5062833;28;20048;-72
2021/01/08 03:45:03;;;;;;;51.10;22.23;;;0.80;99.90;;;;;;5046469;28;20052;-72
2021/01/08 03:47:29;;;;;;;40.55;20.73;;;0.80;99.90;;;;;;5063695;28;20405;-73
2021/01/08 03:49:56;;;;;;;46.38;19.33;;;0.80;99.90;;;;;;5063960;28;20048;-72
2021/01/08 03:52:22;;;;;;;42.97;20.70;;;0.80;99.90;;;;;;5065007;28;20048;-73
2021/01/08 03:54:48;;;;;;;49.28;20.88;;;0.80;99.90;;;;;;5046399;28;20123;-72
2021/01/08 03:57:15;;;;;;;53.50;22.70;;;0.80;99.90;;;;;;5063037;28;20055;-73
2021/01/08 03:59:41;;;;;;;41.97;19.50;;;0.80;99.90;;;;;;5062884;28;20067;-72
2021/01/08 04:02:07;;;;;;;45.90;19.02;;;0.80;99.90;;;;;;5054262;28;20064;-72
2021/01/08 04:04:34;;;;;;;41.33;18.83;;;0.90;99.90;;;;;;5038493;28;20497;-73
2021/01/08 04:07:00;;;;;;;35.83;17.20;;;0.90;99.90;;;;;;5040403;28;20135;-73
2021/01/08 04:09:26;;;;;;;43.88;18.38;;;0.90;99.90;;;;;;5063811;28;20044;-72
2021/01/08 04:11:53;;;;;;;33.10;15.93;;;0.80;99.90;;;;;;5064797;28;20058;-72
2021/01/08 04:14:19;;;;;;;35.83;17.55;;;0.80;99.90;;;;;;5066967;28;20044;-73
2021/01/08 04:16:45;;;;;;;39.55;18.48;;;0.80;99.90;;;;;;5049707;28;20045;-73
2021/01/08 04:19:12;;;;;;;56.13;21.15;;;0.80;99.90;;;;;;5051039;28;20041;-72
2021/01/08 04:21:39;;;;;;;77.95;25.08;;;0.70;99.90;;;;;;5068047;28;20088;-73
2021/01/08 04:24:06;;;;;;;89.55;26.13;;;0.70;99.90;;;;;;5050269;28;20059;-72
2021/01/08 04:26:32;;;;;;;119.05;29.45;;;0.70;99.90;;;;;;5067807;28;20048;-72
2021/01/08 04:28:58;;;;;;;151.65;32.85;;;0.70;99.90;;;;;;5048093;28;20507;-73
2021/01/08 04:31:25;;;;;;;240.02;38.75;;;0.70;99.90;;;;;;5059251;28;20063;-73
2021/01/08 04:33:52;;;;;;;176.57;36.75;;;0.70;99.90;;;;;;5061584;28;20044;-73
2021/01/08 04:36:18;;;;;;;122.13;29.85;;;0.80;99.90;;;;;;5049077;28;20052;-73
2021/01/08 04:38:44;;;;;;;166.05;35.90;;;0.80;99.90;;;;;;5066787;28;20048;-73
2021/01/08 04:41:11;;;;;;;129.55;31.95;;;0.80;99.90;;;;;;5066465;28;20144;-73
2021/01/08 04:43:38;;;;;;;115.60;32.10;;;0.80;99.90;;;;;;5066494;28;20070;-72
2021/01/08 04:46:25;;;;;;;163.80;41.17;;;0.80;99.90;;;;;;5065685;28;20489;-72
2021/01/08 04:49:04;;;;;;;128.40;32.38;;;0.80;99.90;;;;;;5068069;28;20143;-71
2021/01/08 04:51:34;;;;;;;184.68;38.67;;;0.70;99.90;;;;;;5066042;28;20762;-72
2021/01/08 04:54:01;;;;;;;110.30;28.20;;;0.70;99.90;;;;;;5066460;28;20067;-71
2021/01/08 04:56:32;;;;;;;155.38;32.80;;;0.80;99.90;;;;;;5065758;28;20058;-72
2021/01/08 04:58:58;;;;;;;122.75;33.25;;;0.80;99.90;;;;;;5063823;28;20327;-72
2021/01/08 05:01:24;;;;;;;112.70;27.35;;;0.70;99.90;;;;;;5065732;28;20051;-72
2021/01/08 05:03:51;;;;;;;144.07;31.48;;;0.70;99.90;;;;;;5056399;28;20041;-71
2021/01/08 05:06:18;;;;;;;200.20;39.72;;;0.70;99.90;;;;;;5048604;28;20129;-71
2021/01/08 05:08:44;;;;;;;110.70;27.95;;;0.70;99.90;;;;;;5065957;28;20048;-72
2021/01/08 05:11:27;;;;;;;76.10;24.75;;;0.70;99.90;;;;;;5065276;28;20735;-72
2021/01/08 05:14:07;;;;;;;158.77;36.65;;;0.70;99.90;;;;;;5049070;28;20072;-72
2021/01/08 05:16:33;;;;;;;77.03;24.83;;;0.70;99.90;;;;;;5048860;28;20056;-72
2021/01/08 05:19:02;;;;;;;67.25;23.77;;;0.70;99.90;;;;;;5048794;28;20109;-72
2021/01/08 05:21:30;;;;;;;104.07;29.00;;;0.80;99.90;;;;;;5045285;28;20059;-72
2021/01/08 05:23:58;;;;;;;87.45;25.63;;;0.70;99.90;;;;;;5013220;28;20469;-71
2021/01/08 05:26:25;;;;;;;62.83;21.48;;;0.80;99.90;;;;;;5060155;28;20044;-72
2021/01/08 05:28:52;;;;;;;71.50;21.90;;;0.80;99.90;;;;;;5040651;28;20660;-72
2021/01/08 05:31:20;;;;;;;57.15;21.08;;;0.80;99.90;;;;;;5049063;28;20044;-71
2021/01/08 05:33:48;;;;;;;44.88;19.27;;;0.90;99.90;;;;;;5065860;28;20044;-71
2021/01/08 05:36:15;;;;;;;36.63;17.30;;;0.90;99.90;;;;;;5064828;28;20040;-72
2021/01/08 05:38:52;;;;;;;42.10;19.08;;;0.90;99.90;;;;;;5049303;28;20143;-72
2021/01/08 05:41:19;;;;;;;45.60;17.85;;;0.90;99.90;;;;;;5065141;28;20421;-71
2021/01/08 05:43:46;;;;;;;36.22;18.58;;;0.90;99.90;;;;;;5065303;28;20121;-72
2021/01/08 05:46:15;;;;;;;34.33;16.27;;;0.90;99.90;;;;;;5058550;28;20051;-73
2021/01/08 05:48:47;;;;;;;36.70;17.15;;;0.90;99.90;;;;;;5031586;28;20160;-72
2021/01/08 05:51:19;;;;;;;30.73;15.90;;;0.90;99.90;;;;;;5073603;28;20052;-72
2021/01/08 05:53:47;;;;;;;33.50;17.13;;;0.90;99.90;;;;;;5066097;28;20056;-72
2021/01/08 05:56:16;;;;;;;26.35;15.07;;;0.80;99.90;;;;;;5064070;28;20058;-72
2021/01/08 05:58:43;;;;;;;29.98;15.15;;;0.80;99.90;;;;;;5047792;28;20438;-73
2021/01/08 06:01:11;;;;;;;26.65;14.40;;;0.80;99.90;;;;;;5046591;28;20123;-72
2021/01/08 06:03:39;;;;;;;29.10;15.55;;;0.80;99.90;;;;;;5058195;28;20055;-72
2021/01/08 06:06:05;;;;;;;31.52;17.10;;;0.80;99.90;;;;;;5063474;28;20096;-73
2021/01/08 06:08:53;;;;;;;24.27;14.13;;;0.80;99.90;;;;;;5049210;28;20143;-73
2021/01/08 06:11:25;;;;;;;23.67;14.32;;;0.80;99.90;;;;;;5064935;28;20124;-71
2021/01/08 06:13:53;;;;;;;26.70;15.23;;;0.90;99.90;;;;;;5048769;28;20049;-73
2021/01/08 06:16:21;;;;;;;20.00;12.13;;;0.90;99.90;;;;;;5045433;28;20049;-73
2021/01/08 06:18:55;;;;;;;26.10;13.15;;;0.90;99.90;;;;;;5067611;28;20405;-73
2021/01/08 06:21:37;;;;;;;21.23;11.85;;;0.90;99.90;;;;;;5046159;28;20152;-72
2021/01/08 06:24:05;;;;;;;22.95;13.73;;;0.90;99.90;;;;;;5031151;28;20055;-73
2021/01/08 06:26:31;;;;;;;21.13;12.45;;;0.90;99.90;;;;;;5046939;28;20055;-73
2021/01/08 06:29:02;;;;;;;19.73;11.25;;;0.90;99.90;;;;;;5061974;28;20054;-73
2021/01/08 06:31:51;;;;;;;17.95;11.07;;;0.90;99.90;;;;;;5063070;28;20044;-72
2021/01/08 06:34:25;;;;;;;18.98;11.68;;;0.80;99.90;;;;;;5046905;28;20053;-72
2021/01/08 06:37:06;;;;;;;20.42;12.25;;;0.90;99.90;;;;;;5046725;28;20186;-73
2021/01/08 06:39:38;;;;;;;21.05;10.90;;;0.90;99.90;;;;;;5047442;28;20437;-73
2021/01/08 06:42:06;;;;;;;19.40;11.75;;;0.90;99.90;;;;;;5046208;28;20059;-72
2021/01/08 06:44:33;;;;;;;24.13;12.15;;;0.90;99.90;;;;;;5046826;28;20048;-72
2021/01/08 06:47:04;;;;;;;19.17;12.00;;;0.80;99.90;;;;;;5028301;28;20562;-73
2021/01/08 06:49:32;;;;;;;24.60;13.32;;;0.80;99.90;;;;;;5064249;28;20044;-73
2021/01/08 06:52:00;;;;;;;23.95;14.27;;;0.80;99.90;;;;;;5046795;28;20041;-72
2021/01/08 06:54:28;;;;;;;24.15;12.80;;;0.80;99.90;;;;;;5063750;28;20055;-73
2021/01/08 06:57:00;;;;;;;23.75;12.57;;;0.80;99.90;;;;;;5028979;28;20134;-73
2021/01/08 06:59:35;;;;;;;23.67;11.85;;;0.80;99.90;;;;;;5063429;28;20045;-73
2021/01/08 07:02:17;;;;;;;21.80;12.85;;;0.80;99.90;;;;;;5061513;28;20048;-73
2021/01/08 07:04:44;;;;;;;24.33;13.32;;;0.80;99.90;;;;;;5057816;28;20056;-73
2021/01/08 07:07:20;;;;;;;27.00;12.80;;;0.80;99.90;;;;;;5062533;28;20059;-73
2021/01/08 07:09:47;;;;;;;24.35;13.38;;;0.80;99.90;;;;;;5065253;28;20052;-73
2021/01/08 07:12:13;;;;;;;25.73;13.50;;;0.70;99.90;;;;;;5062636;28;20135;-74
2021/01/08 07:14:40;;;;;;;26.75;14.05;;;0.70;99.90;;;;;;5029493;28;20429;-73
2021/01/08 07:17:14;;;;;;;26.08;15.10;;;0.80;99.90;;;;;;5046103;28;20048;-72
2021/01/08 07:19:43;;;;;;;23.58;13.38;;;0.80;99.90;;;;;;5046230;28;20056;-73
2021/01/08 07:22:20;;;;;;;23.27;13.75;;;0.90;99.90;;;;;;5045814;28;20063;-73
2021/01/08 07:24:48;;;;;;;25.92;14.30;;;0.80;99.90;;;;;;5046573;28;20213;-74
2021/01/08 07:27:14;;;;;;;21.10;12.73;;;0.90;99.90;;;;;;5062755;28;20289;-73
2021/01/08 07:29:48;;;;;;;21.58;12.43;;;0.80;99.90;;;;;;5045702;28;20161;-73
2021/01/08 07:32:38;;;;;;;19.90;12.38;;;0.90;99.90;;;;;;5046460;28;20063;-73
2021/01/08 07:35:25;;;;;;;17.80;12.02;;;0.90;99.90;;;;;;5062128;28;20110;-74
2021/01/08 07:38:31;;;;;;;21.05;11.80;;;1.00;99.90;;;;;;5066122;28;20049;-72
2021/01/08 07:40:58;;;;;;;22.52;12.73;;;0.90;99.90;;;;;;5063194;28;20135;-73
2021/01/08 07:43:35;;;;;;;22.52;13.02;;;1.00;99.90;;;;;;5047409;28;20719;-74
2021/01/08 07:46:03;;;;;;;18.30;12.75;;;0.90;99.90;;;;;;5065014;28;20087;-74
2021/01/08 07:48:34;;;;;;;24.38;11.90;;;0.90;99.90;;;;;;5068448;28;20055;-73
2021/01/08 07:51:04;;;;;;;19.65;13.32;;;0.90;99.90;;;;;;5034281;28;20120;-74
2021/01/08 07:53:43;;;;;;;19.70;11.43;;;0.90;99.90;;;;;;5068049;28;20079;-74
2021/01/08 07:56:22;;;;;;;18.98;11.30;;;0.90;99.90;;;;;;5066813;28;20454;-74
2021/01/08 07:58:58;;;;;;;23.25;12.88;;;0.80;99.90;;;;;;5034067;28;20139;-74
2021/01/08 08:01:25;;;;;;;23.00;13.32;;;0.80;99.90;;;;;;5068091;28;20305;-73
2021/01/08 08:04:03;;;;;;;24.95;13.65;;;0.90;99.90;;;;;;5050703;28;20087;-73
2021/01/08 08:06:31;;;;;;;30.05;16.52;;;0.80;99.90;;;;;;5066883;28;20603;-74
2021/01/08 08:08:59;;;;;;;34.35;20.83;;;0.80;99.90;;;;;;5051985;28;20053;-73
2021/01/08 08:11:28;;;;;;;22.90;12.88;;;0.90;99.90;;;;;;5069921;28;20045;-73
2021/01/08 08:13:54;;;;;;;26.90;14.90;;;0.90;99.90;;;;;;5068300;28;20821;-74
2021/01/08 08:16:31;;;;;;;31.45;15.95;;;0.80;99.90;;;;;;5043661;28;20040;-73
2021/01/08 08:18:58;;;;;;;33.63;15.50;;;0.80;99.90;;;;;;5054525;28;20114;-73
2021/01/08 08:21:24;;;;;;;35.42;17.15;;;0.80;99.90;;;;;;5066112;28;20688;-73
2021/01/08 08:23:59;;;;;;;31.95;15.88;;;0.90;99.90;;;;;;5067499;28;20134;-73
2021/01/08 08:26:26;;;;;;;35.83;16.98;;;0.90;99.90;;;;;;5067841;28;20056;-73
2021/01/08 08:29:02;;;;;;;49.75;18.48;;;0.90;99.90;;;;;;5050181;28;20477;-73
2021/01/08 08:31:30;;;;;;;91.18;24.35;;;0.90;99.90;;;;;;5049619;28;20076;-73
2021/01/08 08:33:58;;;;;;;42.05;17.63;;;0.90;99.90;;;;;;5067043;28;20055;-73
2021/01/08 08:36:26;;;;;;;32.65;16.77;;;0.90;99.90;;;;;;5066075;28;20052;-73
2021/01/08 08:39:12;;;;;;;29.52;15.18;;;1.00;99.90;;;;;;5050777;28;20037;-76
2021/01/08 08:41:44;;;;;;;35.00;17.30;;;0.90;99.90;;;;;;5049708;28;20045;-76
2021/01/08 08:44:12;;;;;;;39.30;16.90;;;1.10;99.90;;;;;;5046531;28;20049;-75
2021/01/08 08:46:52;;;;;;;31.45;16.75;;;1.10;99.90;;;;;;5036340;28;20054;-75
2021/01/08 08:49:21;;;;;;;34.70;17.25;;;1.20;99.90;;;;;;5067110;28;20459;-72
2021/01/08 08:51:49;;;;;;;35.83;17.48;;;1.20;99.90;;;;;;5033630;28;20045;-79
2021/01/08 08:54:17;;;;;;;28.00;15.85;;;1.10;99.90;;;;;;5032945;28;20147;-73
2021/01/08 08:57:00;;;;;;;29.48;16.23;;;1.20;99.90;;;;;;5065443;28;20619;-73
2021/01/08 08:59:44;;;;;;;24.55;15.30;;;1.20;99.90;;;;;;5059330;28;20044;-73
2021/01/08 09:02:11;;;;;;;29.88;17.63;;;1.20;99.90;;;;;;5042033;28;20062;-74
2021/01/08 09:05:02;;;;;;;30.17;16.65;;;1.20;99.90;;;;;;5065550;28;20041;-73
2021/01/08 09:07:30;;;;;;;47.28;17.23;;;1.20;99.90;;;;;;5046401;28;20053;-73
2021/01/08 09:10:16;;;;;;;24.67;14.68;;;1.10;99.90;;;;;;5046572;28;20053;-73
2021/01/08 09:12:53;;;;;;;23.60;14.93;;;1.20;99.90;;;;;;5067583;28;20056;-74
2021/01/08 09:15:53;;;;;;;26.27;15.95;;;1.20;99.90;;;;;;5065305;28;20523;-73
2021/01/08 09:18:37;;;;;;;26.48;14.85;;;1.30;99.90;;;;;;5049833;28;20055;-76
2021/01/08 09:21:21;;;;;;;27.52;15.32;;;1.30;99.90;;;;;;5065989;28;20072;-75
2021/01/08 09:23:51;;;;;;;35.53;19.75;;;1.20;99.90;;;;;;5052370;28;20052;-75
2021/01/08 09:26:19;;;;;;;26.08;16.25;;;1.20;99.90;;;;;;5048687;28;20052;-74
2021/01/08 09:28:52;;;;;;;27.45;16.73;;;1.20;99.90;;;;;;5072814;28;20596;-75
2021/01/08 09:31:39;;;;;;;23.63;15.32;;;1.30;99.90;;;;;;5017583;28;20147;-75
2021/01/08 09:34:07;;;;;;;23.38;14.65;;;1.30;99.90;;;;;;5043883;28;20049;-75
2021/01/08 09:36:39;;;;;;;25.23;15.95;;;1.20;99.90;;;;;;5053090;28;20135;-75
2021/01/08 09:39:10;;;;;;;21.50;14.02;;;1.20;99.90;;;;;;5076033;28;20114;-76
2021/01/08 09:41:43;;;;;;;22.08;14.82;;;1.30;99.90;;;;;;5047743;28;20054;-75
2021/01/08 09:44:12;;;;;;;22.17;15.20;;;1.40;99.90;;;;;;5059773;28;20493;-75
2021/01/08 09:46:56;;;;;;;21.38;14.45;;;1.40;99.90;;;;;;5084728;28;20143;-75
2021/01/08 09:49:23;;;;;;;22.55;15.23;;;1.40;99.90;;;;;;5086047;28;20623;-75
2021/01/08 09:52:03;;;;;;;20.88;13.93;;;1.40;99.90;;;;;;5067741;28;20117;-75
2021/01/08 09:54:48;;;;;;;17.35;13.70;;;1.50;99.90;;;;;;5086273;28;20867;-75
2021/01/08 09:57:36;;;;;;;18.45;13.95;;;1.40;99.90;;;;;;5074783;28;20067;-73
2021/01/08 10:00:06;;;;;;;15.98;12.48;;;1.60;99.90;;;;;;5071381;28;20048;-74
2021/01/08 10:02:53;;;;;;;15.55;11.82;;;1.60;99.90;;;;;;5081215;28;20064;-74
2021/01/08 10:05:19;;;;;;;17.95;12.80;;;1.50;99.90;;;;;;5048574;28;20619;-74
2021/01/08 10:07:47;;;;;;;19.30;12.93;;;1.50;99.90;;;;;;5065278;28;20080;-75
2021/01/08 10:10:34;;;;;;;20.63;13.88;;;1.40;99.90;;;;;;5031105;28;20509;-74
2021/01/08 10:13:01;;;;;;;19.80;14.45;;;1.40;99.90;;;;;;5049130;28;20068;-73
2021/01/08 10:15:33;;;;;;;21.30;14.35;;;1.50;99.90;;;;;;5064944;28;20126;-74
2021/01/08 10:18:07;;;;;;;21.15;13.98;;;1.60;99.90;;;;;;5060164;28;20492;-73
2021/01/08 10:20:43;;;;;;;18.85;13.75;;;1.60;99.90;;;;;;5064491;28;20615;-73
2021/01/08 10:23:11;;;;;;;17.50;13.30;;;1.50;99.90;;;;;;5065360;28;20056;-73
2021/01/08 10:25:38;;;;;;;17.23;13.13;;;1.40;99.90;;;;;;5064695;28;20040;-73
2021/01/08 10:28:25;;;;;;;16.88;13.95;;;1.50;99.90;;;;;;5074255;28;20048;-73
2021/01/08 10:30:55;;;;;;;14.73;12.68;;;1.60;99.90;;;;;;5082379;28;20131;-73
2021/01/08 10:33:26;;;;;;;16.70;12.48;;;1.60;99.90;;;;;;5046179;28;20040;-73
2021/01/08 10:35:55;;;;;;;20.98;12.48;;;1.60;99.90;;;;;;5063902;28;20108;-73
2021/01/08 10:38:22;;;;;;;18.00;11.55;;;1.50;99.90;;;;;;5047213;28;20492;-73
2021/01/08 10:40:49;;;;;;;14.60;11.35;;;1.40;99.90;;;;;;5048095;28;20071;-74
2021/01/08 10:43:16;;;;;;;15.38;11.88;;;1.40;99.90;;;;;;5066306;28;20832;-73
2021/01/08 10:45:44;;;;;;;15.20;12.02;;;1.40;99.90;;;;;;5045208;28;20048;-73
2021/01/08 10:48:11;;;;;;;17.00;11.07;;;1.40;99.90;;;;;;5067522;28;20044;-73
2021/01/08 10:50:38;;;;;;;15.07;11.60;;;1.50;99.90;;;;;;5067630;28;20136;-73
2021/01/08 10:53:04;;;;;;;13.57;11.88;;;1.40;99.90;;;;;;5064691;28;20056;-73
2021/01/08 10:55:31;;;;;;;15.70;11.40;;;1.30;99.90;;;;;;5049737;28;20072;-74
2021/01/08 10:57:58;;;;;;;19.70;12.45;;;1.30;99.90;;;;;;5078156;28;20662;-74
2021/01/08 11:00:24;;;;;;;14.65;13.15;;;1.40;99.90;;;;;;5076677;28;20056;-73
2021/01/08 11:02:51;;;;;;;15.30;11.40;;;1.40;99.90;;;;;;5067763;28;20055;-74
2021/01/08 11:05:19;;;;;;;14.82;12.52;;;1.30;99.90;;;;;;5067319;28;20076;-73
2021/01/08 11:07:46;;;;;;;13.50;11.65;;;1.30;99.90;;;;;;5066826;28;20396;-74
2021/01/08 11:10:15;;;;;;;13.32;11.65;;;1.50;99.90;;;;;;5051927;28;20040;-73
2021/01/08 11:12:42;;;;;;;11.70;10.70;;;1.60;99.90;;;;;;5047969;28;20541;-73
2021/01/08 11:15:08;;;;;;;12.32;11.05;;;1.60;99.90;;;;;;5063218;28;20057;-74
2021/01/08 11:17:35;;;;;;;12.40;10.63;;;1.60;99.90;;;;;;5066766;28;20220;-74
2021/01/08 11:20:02;;;;;;;12.38;11.02;;;1.60;99.90;;;;;;5048134;28;20126;-74
2021/01/08 11:22:29;;;;;;;11.48;10.43;;;1.70;99.90;;;;;;5044013;28;20052;-74
2021/01/08 11:24:55;;;;;;;11.52;10.38;;;1.70;99.90;;;;;;5051249;28;20136;-73
2021/01/08 11:27:22;;;;;;;12.38;11.18;;;1.60;99.90;;;;;;5050924;28;20051;-73
2021/01/08 11:29:48;;;;;;;12.27;11.05;;;1.70;99.90;;;;;;5048987;28;20076;-74
2021/01/08 11:32:15;;;;;;;14.27;12.98;;;1.60;99.90;;;;;;5045758;28;20517;-73
2021/01/08 11:34:41;;;;;;;12.88;11.00;;;1.60;99.90;;;;;;5073117;28;20506;-74
2021/01/08 11:37:09;;;;;;;12.68;11.38;;;1.60;99.90;;;;;;5056665;28;20101;-73
2021/01/08 11:39:47;;;;;;;12.43;11.23;;;1.60;99.90;;;;;;5071805;28;20052;-74
2021/01/08 11:42:14;;;;;;;15.27;12.38;;;1.70;99.90;;;;;;5037971;28;20464;-73
2021/01/08 11:44:42;;;;;;;14.10;12.25;;;1.60;99.90;;;;;;5046939;28;20087;-72
2021/01/08 11:47:08;;;;;;;15.65;13.32;;;1.50;99.90;;;;;;5044427;28;20061;-73
2021/01/08 11:49:35;;;;;;;16.83;13.75;;;1.60;99.90;;;;;;5071775;28;20055;-73
2021/01/08 11:52:02;;;;;;;18.55;15.32;;;1.60;99.90;;;;;;5056736;28;20056;-73
2021/01/08 11:54:28;;;;;;;17.85;15.98;;;1.60;99.90;;;;;;5068194;28;20497;-73
2021/01/08 11:56:54;;;;;;;17.45;15.65;;;1.70;99.90;;;;;;5056368;28;20140;-73
2021/01/08 11:59:21;;;;;;;19.92;16.30;;;1.70;99.90;;;;;;5053511;28;20047;-73
2021/01/08 12:01:47;;;;;;;19.90;15.68;;;1.60;99.90;;;;;;5080262;28;20121;-73
2021/01/08 12:04:13;;;;;;;17.85;15.30;;;1.50;99.90;;;;;;5063839;28;20045;-73
2021/01/08 12:06:40;;;;;;;16.33;14.63;;;1.40;99.90;;;;;;5062513;28;20048;-73
2021/01/08 12:09:10;;;;;;;20.13;14.52;;;1.40;99.90;;;;;;5064114;28;20135;-74
2021/01/08 12:11:36;;;;;;;19.85;15.65;;;1.30;99.90;;;;;;5063805;28;20121;-73
2021/01/08 12:14:02;;;;;;;24.30;16.55;;;1.30;99.90;;;;;;5063642;28;20451;-73
2021/01/08 12:16:33;;;;;;;20.55;15.57;;;1.30;99.90;;;;;;5034658;28;20049;-74
2021/01/08 12:19:01;;;;;;;22.20;17.67;;;1.30;99.90;;;;;;5044295;28;20057;-73
2021/01/08 12:21:30;;;;;;;19.25;14.52;;;1.10;99.90;;;;;;5042739;28;20049;-73
2021/01/08 12:23:58;;;;;;;18.63;15.05;;;1.10;99.90;;;;;;5056658;28;20052;-73
2021/01/08 12:26:24;;;;;;;19.13;15.05;;;1.10;99.90;;;;;;5045178;28;20040;-73
2021/01/08 12:28:51;;;;;;;21.92;15.77;;;1.20;99.90;;;;;;5070263;28;20052;-74
2021/01/08 12:31:24;;;;;;;22.92;17.13;;;1.10;99.90;;;;;;5053821;28;20052;-73
2021/01/08 12:33:52;;;;;;;25.77;16.80;;;1.10;99.90;;;;;;5069713;28;20045;-74
2021/01/08 12:36:20;;;;;;;23.40;15.25;;;1.20;99.90;;;;;;5061160;28;20063;-74
2021/01/08 12:38:47;;;;;;;25.40;16.50;;;1.10;99.90;;;;;;5087022;28;20059;-74
2021/01/08 12:41:15;;;;;;;24.05;15.73;;;1.10;99.90;;;;;;5057219;28;20524;-74
2021/01/08 12:43:41;;;;;;;22.38;15.15;;;1.10;99.90;;;;;;5066371;28;20048;-74
2021/01/08 12:46:08;;;;;;;19.40;14.73;;;1.10;99.90;;;;;;5057568;28;20125;-74
2021/01/08 12:48:36;;;;;;;20.02;12.60;;;1.10;99.90;;;;;;5067116;28;20041;-74